sensor_id;sensor_type;location;lat;lon;timestamp;pressure;altitude;pressure_sealevel;temperature;humidity
11395;BME280;5753;54.402;10.220;2023-08-17T00:00:38;102337.19;;;28.32;43.51
11395;BME280;5753;54.402;10.220;2023-08-17T00:03:04;102335.72;;;28.24;43.71
11395;BME280;5753;54.402;10.220;2023-08-17T00:05:30;102335.03;;;28.68;42.64
11395;BME280;5753;54.402;10.220;2023-08-17T00:07:59;102330.53;;;28.70;42.86
11395;BME280;5753;54.402;10.220;2023-08-17T00:10:25;102328.66;;;28.99;41.96
11395;BME280;5753;54.402;10.220;2023-08-17T00:12:51;102327.09;;;28.93;42.17
11395;BME280;5753;54.402;10.220;2023-08-17T00:15:18;102329.72;;;28.68;42.97
11395;BME280;5753;54.402;10.220;2023-08-17T00:17:44;102324.25;;;28.98;42.17
11395;BME280;5753;54.402;10.220;2023-08-17T00:20:10;102325.22;;;28.70;42.89
11395;BME280;5753;54.402;10.220;2023-08-17T00:22:36;102323.00;;;28.07;44.30
11395;BME280;5753;54.402;10.220;2023-08-17T00:25:03;102338.88;;;28.08;44.58
11395;BME280;5753;54.402;10.220;2023-08-17T00:27:34;102343.34;;;29.07;42.98
11395;BME280;5753;54.402;10.220;2023-08-17T00:30:00;102344.50;;;28.75;43.11
11395;BME280;5753;54.402;10.220;2023-08-17T00:32:26;102350.16;;;28.66;44.06
11395;BME280;5753;54.402;10.220;2023-08-17T00:34:53;102345.41;;;28.51;44.18
11395;BME280;5753;54.402;10.220;2023-08-17T00:37:19;102339.44;;;29.18;42.58
11395;BME280;5753;54.402;10.220;2023-08-17T00:39:45;102335.22;;;29.12;42.57
11395;BME280;5753;54.402;10.220;2023-08-17T00:42:15;102328.06;;;28.41;44.06
11395;BME280;5753;54.402;10.220;2023-08-17T00:44:41;102334.16;;;28.16;44.20
11395;BME280;5753;54.402;10.220;2023-08-17T00:47:07;102338.50;;;28.19;44.63
11395;BME280;5753;54.402;10.220;2023-08-17T00:49:34;102338.84;;;28.61;43.96
11395;BME280;5753;54.402;10.220;2023-08-17T00:52:01;102333.69;;;28.57;43.83
11395;BME280;5753;54.402;10.220;2023-08-17T00:54:28;102327.03;;;28.70;43.53
11395;BME280;5753;54.402;10.220;2023-08-17T00:56:55;102326.81;;;27.72;45.86
11395;BME280;5753;54.402;10.220;2023-08-17T00:59:22;102323.41;;;28.47;44.07
11395;BME280;5753;54.402;10.220;2023-08-17T01:01:49;102333.13;;;29.20;42.52
11395;BME280;5753;54.402;10.220;2023-08-17T01:04:15;102329.94;;;28.37;43.40
11395;BME280;5753;54.402;10.220;2023-08-17T01:06:41;102331.56;;;28.15;43.72
11395;BME280;5753;54.402;10.220;2023-08-17T01:09:08;102341.00;;;29.00;42.09
11395;BME280;5753;54.402;10.220;2023-08-17T01:11:49;102329.16;;;28.83;42.56
11395;BME280;5753;54.402;10.220;2023-08-17T01:14:27;102338.78;;;29.11;42.04
11395;BME280;5753;54.402;10.220;2023-08-17T01:20:04;102333.53;;;29.09;41.41
11395;BME280;5753;54.402;10.220;2023-08-17T01:22:32;102331.78;;;28.60;41.68
11395;BME280;5753;54.402;10.220;2023-08-17T01:25:01;102334.19;;;28.93;41.31
11395;BME280;5753;54.402;10.220;2023-08-17T01:27:36;102332.78;;;29.06;41.29
11395;BME280;5753;54.402;10.220;2023-08-17T01:30:03;102319.06;;;27.66;43.81
11395;BME280;5753;54.402;10.220;2023-08-17T01:32:37;102329.94;;;28.62;41.86
11395;BME280;5753;54.402;10.220;2023-08-17T01:35:30;102320.69;;;28.99;41.16
11395;BME280;5753;54.402;10.220;2023-08-17T01:38:02;102317.50;;;27.86;42.68
11395;BME280;5753;54.402;10.220;2023-08-17T01:40:33;102318.47;;;28.37;42.16
11395;BME280;5753;54.402;10.220;2023-08-17T01:43:01;102328.34;;;28.58;41.53
11395;BME280;5753;54.402;10.220;2023-08-17T01:45:27;102321.59;;;28.73;40.92
11395;BME280;5753;54.402;10.220;2023-08-17T01:47:55;102312.56;;;28.02;42.81
11395;BME280;5753;54.402;10.220;2023-08-17T01:50:22;102303.00;;;27.98;42.67
11395;BME280;5753;54.402;10.220;2023-08-17T01:52:48;102295.09;;;28.48;41.90
11395;BME280;5753;54.402;10.220;2023-08-17T01:55:16;102298.97;;;28.38;42.35
11395;BME280;5753;54.402;10.220;2023-08-17T01:57:42;102295.63;;;28.06;42.78
11395;BME280;5753;54.402;10.220;2023-08-17T02:00:09;102291.72;;;27.36;44.00
11395;BME280;5753;54.402;10.220;2023-08-17T02:02:36;102292.56;;;28.45;42.12
11395;BME280;5753;54.402;10.220;2023-08-17T02:05:03;102295.53;;;28.86;41.12
11395;BME280;5753;54.402;10.220;2023-08-17T02:07:29;102292.03;;;28.34;42.11
11395;BME280;5753;54.402;10.220;2023-08-17T02:09:55;102283.56;;;27.14;44.59
11395;BME280;5753;54.402;10.220;2023-08-17T02:12:21;102298.28;;;28.06;43.42
11395;BME280;5753;54.402;10.220;2023-08-17T02:14:47;102282.66;;;28.50;42.04
11395;BME280;5753;54.402;10.220;2023-08-17T02:17:13;102285.75;;;28.36;42.42
11395;BME280;5753;54.402;10.220;2023-08-17T02:19:42;102292.25;;;28.28;42.13
11395;BME280;5753;54.402;10.220;2023-08-17T02:22:09;102296.16;;;28.67;41.58
11395;BME280;5753;54.402;10.220;2023-08-17T02:24:35;102297.75;;;27.69;43.78
11395;BME280;5753;54.402;10.220;2023-08-17T02:27:01;102291.84;;;28.40;41.95
11395;BME280;5753;54.402;10.220;2023-08-17T02:29:27;102286.16;;;26.84;45.37
11395;BME280;5753;54.402;10.220;2023-08-17T02:31:53;102286.75;;;28.34;42.65
11395;BME280;5753;54.402;10.220;2023-08-17T02:34:19;102286.91;;;28.54;42.28
11395;BME280;5753;54.402;10.220;2023-08-17T02:36:45;102288.41;;;27.57;44.39
11395;BME280;5753;54.402;10.220;2023-08-17T02:39:11;102290.41;;;27.21;44.70
11395;BME280;5753;54.402;10.220;2023-08-17T02:41:37;102288.69;;;27.20;44.91
11395;BME280;5753;54.402;10.220;2023-08-17T02:44:03;102304.28;;;28.11;42.75
11395;BME280;5753;54.402;10.220;2023-08-17T02:46:30;102307.09;;;27.52;43.87
11395;BME280;5753;54.402;10.220;2023-08-17T02:48:56;102310.53;;;28.10;42.53
11395;BME280;5753;54.402;10.220;2023-08-17T02:51:22;102305.31;;;27.81;43.08
11395;BME280;5753;54.402;10.220;2023-08-17T02:53:48;102306.88;;;27.31;44.11
11395;BME280;5753;54.402;10.220;2023-08-17T02:56:14;102305.66;;;27.70;43.13
11395;BME280;5753;54.402;10.220;2023-08-17T02:58:40;102313.88;;;27.89;42.80
11395;BME280;5753;54.402;10.220;2023-08-17T03:01:07;102309.69;;;28.35;41.73
11395;BME280;5753;54.402;10.220;2023-08-17T03:03:34;102307.78;;;27.29;43.37
11395;BME280;5753;54.402;10.220;2023-08-17T03:06:01;102311.44;;;27.83;42.43
11395;BME280;5753;54.402;10.220;2023-08-17T03:08:27;102320.53;;;28.29;41.81
11395;BME280;5753;54.402;10.220;2023-08-17T03:10:53;102323.88;;;28.59;40.78
11395;BME280;5753;54.402;10.220;2023-08-17T03:13:19;102332.84;;;28.30;41.41
11395;BME280;5753;54.402;10.220;2023-08-17T03:15:45;102323.56;;;28.43;41.17
11395;BME280;5753;54.402;10.220;2023-08-17T03:18:11;102325.50;;;28.38;41.34
11395;BME280;5753;54.402;10.220;2023-08-17T03:20:38;102325.81;;;28.78;40.47
11395;BME280;5753;54.402;10.220;2023-08-17T03:23:04;102327.88;;;28.70;40.48
11395;BME280;5753;54.402;10.220;2023-08-17T03:25:33;102322.78;;;27.86;42.46
11395;BME280;5753;54.402;10.220;2023-08-17T03:28:00;102319.84;;;28.22;42.00
11395;BME280;5753;54.402;10.220;2023-08-17T03:30:26;102319.19;;;28.42;41.37
11395;BME280;5753;54.402;10.220;2023-08-17T03:32:52;102314.94;;;28.61;40.83
11395;BME280;5753;54.402;10.220;2023-08-17T03:35:19;102314.31;;;28.78;40.56
11395;BME280;5753;54.402;10.220;2023-08-17T03:37:45;102318.75;;;28.54;41.21
11395;BME280;5753;54.402;10.220;2023-08-17T03:40:11;102312.34;;;28.08;41.93
11395;BME280;5753;54.402;10.220;2023-08-17T03:42:37;102310.31;;;28.16;42.01
11395;BME280;5753;54.402;10.220;2023-08-17T03:45:04;102310.78;;;28.54;41.41
11395;BME280;5753;54.402;10.220;2023-08-17T03:47:30;102310.31;;;27.64;43.22
11395;BME280;5753;54.402;10.220;2023-08-17T03:49:56;102309.50;;;28.41;41.58
11395;BME280;5753;54.402;10.220;2023-08-17T03:52:22;102310.25;;;28.44;41.17
11395;BME280;5753;54.402;10.220;2023-08-17T03:54:48;102315.94;;;28.07;42.17
11395;BME280;5753;54.402;10.220;2023-08-17T03:57:14;102317.06;;;28.51;41.20
11395;BME280;5753;54.402;10.220;2023-08-17T03:59:41;102314.94;;;28.36;41.48
11395;BME280;5753;54.402;10.220;2023-08-17T04:02:07;102311.03;;;28.48;41.24
11395;BME280;5753;54.402;10.220;2023-08-17T04:04:33;102314.88;;;28.39;41.26
11395;BME280;5753;54.402;10.220;2023-08-17T04:06:59;102313.28;;;28.07;41.93
11395;BME280;5753;54.402;10.220;2023-08-17T04:09:26;102311.06;;;28.20;41.65
11395;BME280;5753;54.402;10.220;2023-08-17T04:11:52;102317.78;;;27.49;42.81
11395;BME280;5753;54.402;10.220;2023-08-17T04:14:18;102317.16;;;28.24;41.27
11395;BME280;5753;54.402;10.220;2023-08-17T04:16:44;102313.88;;;28.42;41.28
11395;BME280;5753;54.402;10.220;2023-08-17T04:19:10;102306.78;;;27.89;42.44
11395;BME280;5753;54.402;10.220;2023-08-17T04:21:36;102309.91;;;28.29;41.43
11395;BME280;5753;54.402;10.220;2023-08-17T04:24:02;102310.22;;;28.69;40.73
11395;BME280;5753;54.402;10.220;2023-08-17T04:26:28;102317.75;;;26.90;44.15
11395;BME280;5753;54.402;10.220;2023-08-17T04:28:54;102322.72;;;27.62;42.97
11395;BME280;5753;54.402;10.220;2023-08-17T04:31:20;102321.97;;;27.84;42.37
11395;BME280;5753;54.402;10.220;2023-08-17T04:33:46;102330.91;;;28.08;41.74
11395;BME280;5753;54.402;10.220;2023-08-17T04:36:12;102327.03;;;28.45;41.04
11395;BME280;5753;54.402;10.220;2023-08-17T04:38:39;102333.13;;;27.96;41.88
11395;BME280;5753;54.402;10.220;2023-08-17T04:41:05;102326.53;;;27.23;43.12
11395;BME280;5753;54.402;10.220;2023-08-17T04:43:31;102333.72;;;28.30;41.25
11395;BME280;5753;54.402;10.220;2023-08-17T04:45:57;102328.66;;;28.49;40.40
11395;BME280;5753;54.402;10.220;2023-08-17T04:48:23;102322.59;;;28.45;40.50
11395;BME280;5753;54.402;10.220;2023-08-17T04:50:50;102323.56;;;27.90;41.50
11395;BME280;5753;54.402;10.220;2023-08-17T04:53:17;102335.72;;;27.97;41.74
11395;BME280;5753;54.402;10.220;2023-08-17T04:55:43;102332.16;;;27.98;42.19
11395;BME280;5753;54.402;10.220;2023-08-17T04:58:09;102325.50;;;28.11;41.84
11395;BME280;5753;54.402;10.220;2023-08-17T05:00:35;102332.88;;;28.55;40.89
11395;BME280;5753;54.402;10.220;2023-08-17T05:03:01;102337.09;;;28.60;40.76
11395;BME280;5753;54.402;10.220;2023-08-17T05:05:27;102338.72;;;28.64;40.45
11395;BME280;5753;54.402;10.220;2023-08-17T05:07:53;102335.31;;;28.09;41.72
11395;BME280;5753;54.402;10.220;2023-08-17T05:10:19;102334.69;;;28.28;41.87
11395;BME280;5753;54.402;10.220;2023-08-17T05:12:45;102335.41;;;28.33;41.99
11395;BME280;5753;54.402;10.220;2023-08-17T05:15:12;102337.31;;;29.04;40.86
11395;BME280;5753;54.402;10.220;2023-08-17T05:17:39;102338.38;;;28.73;41.06
11395;BME280;5753;54.402;10.220;2023-08-17T05:20:06;102345.97;;;29.09;40.67
11395;BME280;5753;54.402;10.220;2023-08-17T05:22:34;102350.50;;;28.80;41.31
11395;BME280;5753;54.402;10.220;2023-08-17T05:25:00;102335.63;;;28.76;41.46
11395;BME280;5753;54.402;10.220;2023-08-17T05:27:26;102334.59;;;29.05;40.73
11395;BME280;5753;54.402;10.220;2023-08-17T05:29:52;102333.47;;;28.11;42.64
11395;BME280;5753;54.402;10.220;2023-08-17T05:32:18;102342.63;;;28.54;41.97
11395;BME280;5753;54.402;10.220;2023-08-17T05:34:44;102340.66;;;28.34;42.27
11395;BME280;5753;54.402;10.220;2023-08-17T05:37:10;102348.94;;;29.23;41.16
11395;BME280;5753;54.402;10.220;2023-08-17T05:39:36;102352.91;;;28.63;42.30
11395;BME280;5753;54.402;10.220;2023-08-17T05:42:02;102347.44;;;29.85;40.08
11395;BME280;5753;54.402;10.220;2023-08-17T05:44:28;102341.81;;;29.02;41.47
11395;BME280;5753;54.402;10.220;2023-08-17T05:46:54;102335.81;;;29.65;40.77
11395;BME280;5753;54.402;10.220;2023-08-17T05:49:20;102336.72;;;28.96;41.53
11395;BME280;5753;54.402;10.220;2023-08-17T05:51:46;102334.03;;;29.42;40.88
11395;BME280;5753;54.402;10.220;2023-08-17T05:54:13;102342.00;;;29.66;40.73
11395;BME280;5753;54.402;10.220;2023-08-17T05:56:39;102339.28;;;29.45;40.35
11395;BME280;5753;54.402;10.220;2023-08-17T05:59:10;102345.44;;;29.68;40.73
11395;BME280;5753;54.402;10.220;2023-08-17T06:01:36;102356.72;;;28.30;42.99
11395;BME280;5753;54.402;10.220;2023-08-17T06:04:04;102358.44;;;28.57;42.97
11395;BME280;5753;54.402;10.220;2023-08-17T06:06:30;102356.31;;;27.59;44.61
11395;BME280;5753;54.402;10.220;2023-08-17T06:08:57;102358.88;;;28.95;42.35
11395;BME280;5753;54.402;10.220;2023-08-17T06:11:23;102361.72;;;28.12;43.76
11395;BME280;5753;54.402;10.220;2023-08-17T06:13:50;102359.00;;;28.92;42.45
11395;BME280;5753;54.402;10.220;2023-08-17T06:16:16;102360.28;;;29.52;40.97
11395;BME280;5753;54.402;10.220;2023-08-17T06:18:42;102358.44;;;29.54;41.14
11395;BME280;5753;54.402;10.220;2023-08-17T06:21:09;102365.94;;;29.19;41.82
11395;BME280;5753;54.402;10.220;2023-08-17T06:23:35;102364.59;;;29.76;40.82
11395;BME280;5753;54.402;10.220;2023-08-17T06:26:01;102365.41;;;30.22;39.83
11395;BME280;5753;54.402;10.220;2023-08-17T06:28:27;102364.53;;;29.56;41.16
11395;BME280;5753;54.402;10.220;2023-08-17T06:30:55;102369.13;;;29.74;40.85
11395;BME280;5753;54.402;10.220;2023-08-17T06:33:21;102373.78;;;30.13;40.35
11395;BME280;5753;54.402;10.220;2023-08-17T06:35:48;102382.28;;;30.43;39.72
11395;BME280;5753;54.402;10.220;2023-08-17T06:38:15;102374.59;;;29.01;41.96
11395;BME280;5753;54.402;10.220;2023-08-17T06:40:41;102376.97;;;30.21;40.17
11395;BME280;5753;54.402;10.220;2023-08-17T06:43:07;102376.50;;;29.89;40.56
11395;BME280;5753;54.402;10.220;2023-08-17T06:45:34;102383.09;;;30.23;40.20
11395;BME280;5753;54.402;10.220;2023-08-17T06:48:00;102389.56;;;30.59;39.85
11395;BME280;5753;54.402;10.220;2023-08-17T06:50:26;102387.22;;;30.92;39.19
11395;BME280;5753;54.402;10.220;2023-08-17T06:52:54;102389.88;;;30.10;40.66
11395;BME280;5753;54.402;10.220;2023-08-17T06:55:20;102386.75;;;30.20;40.24
11395;BME280;5753;54.402;10.220;2023-08-17T06:57:47;102392.88;;;30.64;39.34
11395;BME280;5753;54.402;10.220;2023-08-17T07:00:18;102394.72;;;30.20;40.48
11395;BME280;5753;54.402;10.220;2023-08-17T07:02:47;102395.19;;;30.72;39.49
11395;BME280;5753;54.402;10.220;2023-08-17T07:05:14;102385.59;;;30.48;40.09
11395;BME280;5753;54.402;10.220;2023-08-17T07:07:41;102391.94;;;30.86;39.54
11395;BME280;5753;54.402;10.220;2023-08-17T07:10:09;102389.69;;;30.77;39.66
11395;BME280;5753;54.402;10.220;2023-08-17T07:12:35;102385.00;;;31.22;38.63
11395;BME280;5753;54.402;10.220;2023-08-17T07:15:01;102391.78;;;29.14;42.58
11395;BME280;5753;54.402;10.220;2023-08-17T07:17:27;102390.19;;;28.85;43.54
11395;BME280;5753;54.402;10.220;2023-08-17T07:19:53;102391.59;;;29.43;42.28
11395;BME280;5753;54.402;10.220;2023-08-17T07:22:19;102391.94;;;29.80;41.60
11395;BME280;5753;54.402;10.220;2023-08-17T07:24:45;102392.91;;;29.77;41.87
11395;BME280;5753;54.402;10.220;2023-08-17T07:27:11;102392.94;;;29.99;41.37
11395;BME280;5753;54.402;10.220;2023-08-17T07:29:37;102386.22;;;29.90;41.44
11395;BME280;5753;54.402;10.220;2023-08-17T07:32:03;102392.81;;;30.24;40.99
11395;BME280;5753;54.402;10.220;2023-08-17T07:34:29;102398.25;;;30.43;40.77
11395;BME280;5753;54.402;10.220;2023-08-17T07:36:57;102399.16;;;30.42;40.69
11395;BME280;5753;54.402;10.220;2023-08-17T07:39:23;102399.81;;;30.89;40.01
11395;BME280;5753;54.402;10.220;2023-08-17T07:41:49;102403.94;;;30.76;40.21
11395;BME280;5753;54.402;10.220;2023-08-17T07:44:15;102402.38;;;30.50;40.62
11395;BME280;5753;54.402;10.220;2023-08-17T07:46:41;102406.41;;;30.58;40.73
11395;BME280;5753;54.402;10.220;2023-08-17T07:49:07;102415.19;;;31.21;39.78
11395;BME280;5753;54.402;10.220;2023-08-17T07:51:34;102410.06;;;31.37;39.51
11395;BME280;5753;54.402;10.220;2023-08-17T07:54:01;102398.56;;;31.16;38.46
11395;BME280;5753;54.402;10.220;2023-08-17T07:56:27;102396.03;;;30.32;39.66
11395;BME280;5753;54.402;10.220;2023-08-17T07:58:56;102394.59;;;30.65;39.39
11395;BME280;5753;54.402;10.220;2023-08-17T08:01:23;102393.34;;;31.34;37.88
11395;BME280;5753;54.402;10.220;2023-08-17T08:03:49;102397.88;;;31.50;37.94
11395;BME280;5753;54.402;10.220;2023-08-17T08:06:15;102397.06;;;30.70;38.67
11395;BME280;5753;54.402;10.220;2023-08-17T08:08:41;102399.97;;;31.25;38.13
11395;BME280;5753;54.402;10.220;2023-08-17T08:11:07;102398.25;;;31.80;37.11
11395;BME280;5753;54.402;10.220;2023-08-17T08:13:33;102397.25;;;30.45;38.82
11395;BME280;5753;54.402;10.220;2023-08-17T08:15:59;102381.09;;;31.29;38.63
11395;BME280;5753;54.402;10.220;2023-08-17T08:18:26;102390.75;;;31.51;37.74
11395;BME280;5753;54.402;10.220;2023-08-17T08:20:52;102390.34;;;30.82;38.36
11395;BME280;5753;54.402;10.220;2023-08-17T08:23:18;102382.97;;;31.84;37.36
11395;BME280;5753;54.402;10.220;2023-08-17T08:25:44;102385.63;;;32.20;36.60
11395;BME280;5753;54.402;10.220;2023-08-17T08:28:10;102387.69;;;31.96;36.45
11395;BME280;5753;54.402;10.220;2023-08-17T08:30:36;102387.66;;;31.41;37.73
11395;BME280;5753;54.402;10.220;2023-08-17T08:33:03;102389.88;;;31.31;37.64
11395;BME280;5753;54.402;10.220;2023-08-17T08:35:29;102386.19;;;31.53;37.30
11395;BME280;5753;54.402;10.220;2023-08-17T08:37:55;102382.88;;;31.67;37.22
11395;BME280;5753;54.402;10.220;2023-08-17T08:40:28;102380.34;;;31.63;37.55
11395;BME280;5753;54.402;10.220;2023-08-17T08:42:55;102378.56;;;31.45;38.10
11395;BME280;5753;54.402;10.220;2023-08-17T08:45:22;102376.84;;;30.86;38.57
11395;BME280;5753;54.402;10.220;2023-08-17T08:47:49;102375.06;;;31.26;38.08
11395;BME280;5753;54.402;10.220;2023-08-17T08:50:20;102372.25;;;31.09;38.36
11395;BME280;5753;54.402;10.220;2023-08-17T08:53:01;102371.81;;;30.99;38.74
11395;BME280;5753;54.402;10.220;2023-08-17T08:55:37;102373.16;;;30.28;39.92
11395;BME280;5753;54.402;10.220;2023-08-17T08:58:05;102366.59;;;29.93;40.76
11395;BME280;5753;54.402;10.220;2023-08-17T09:00:33;102360.66;;;30.70;39.89
11395;BME280;5753;54.402;10.220;2023-08-17T09:03:02;102364.44;;;31.62;38.21
11395;BME280;5753;54.402;10.220;2023-08-17T09:05:31;102361.47;;;31.68;38.21
11395;BME280;5753;54.402;10.220;2023-08-17T09:07:57;102366.84;;;31.30;39.00
11395;BME280;5753;54.402;10.220;2023-08-17T09:10:23;102362.16;;;31.36;38.56
11395;BME280;5753;54.402;10.220;2023-08-17T09:12:50;102368.63;;;30.30;40.29
11395;BME280;5753;54.402;10.220;2023-08-17T09:15:16;102361.59;;;30.90;39.40
11395;BME280;5753;54.402;10.220;2023-08-17T09:17:43;102371.44;;;30.67;40.06
11395;BME280;5753;54.402;10.220;2023-08-17T09:20:10;102376.22;;;30.39;40.79
11395;BME280;5753;54.402;10.220;2023-08-17T09:22:44;102367.75;;;31.48;38.94
11395;BME280;5753;54.402;10.220;2023-08-17T09:25:11;102366.91;;;31.29;39.03
11395;BME280;5753;54.402;10.220;2023-08-17T09:27:40;102366.56;;;30.97;39.39
11395;BME280;5753;54.402;10.220;2023-08-17T09:30:10;102369.19;;;30.16;41.03
11395;BME280;5753;54.402;10.220;2023-08-17T09:32:36;102373.31;;;30.65;39.85
11395;BME280;5753;54.402;10.220;2023-08-17T09:35:06;102366.25;;;29.80;41.74
11395;BME280;5753;54.402;10.220;2023-08-17T09:37:33;102372.59;;;30.82;40.13
11395;BME280;5753;54.402;10.220;2023-08-17T09:40:00;102368.00;;;30.65;40.44
11395;BME280;5753;54.402;10.220;2023-08-17T09:42:26;102361.59;;;30.90;40.03
11395;BME280;5753;54.402;10.220;2023-08-17T09:44:54;102369.72;;;30.66;40.17
11395;BME280;5753;54.402;10.220;2023-08-17T09:47:23;102364.56;;;31.21;39.49
11395;BME280;5753;54.402;10.220;2023-08-17T09:49:53;102370.31;;;31.12;39.82
11395;BME280;5753;54.402;10.220;2023-08-17T09:52:23;102371.44;;;30.67;40.57
11395;BME280;5753;54.402;10.220;2023-08-17T09:54:52;102364.41;;;31.26;39.73
11395;BME280;5753;54.402;10.220;2023-08-17T09:57:20;102374.63;;;30.35;41.42
11395;BME280;5753;54.402;10.220;2023-08-17T09:59:46;102366.13;;;29.83;42.09
11395;BME280;5753;54.402;10.220;2023-08-17T10:02:23;102369.78;;;30.23;41.94
11395;BME280;5753;54.402;10.220;2023-08-17T10:04:53;102365.84;;;29.67;43.66
11395;BME280;5753;54.402;10.220;2023-08-17T10:07:20;102369.69;;;30.46;42.82
11395;BME280;5753;54.402;10.220;2023-08-17T10:09:55;102364.03;;;31.13;41.63
11395;BME280;5753;54.402;10.220;2023-08-17T10:12:25;102375.25;;;30.82;41.78
11395;BME280;5753;54.402;10.220;2023-08-17T10:15:08;102361.00;;;31.02;41.75
11395;BME280;5753;54.402;10.220;2023-08-17T10:20:16;102368.06;;;31.03;42.48
11395;BME280;5753;54.402;10.220;2023-08-17T10:22:56;102366.78;;;30.93;42.15
11395;BME280;5753;54.402;10.220;2023-08-17T10:25:29;102372.66;;;30.18;43.78
11395;BME280;5753;54.402;10.220;2023-08-17T10:27:56;102369.91;;;30.42;43.36
11395;BME280;5753;54.402;10.220;2023-08-17T10:30:22;102370.94;;;30.98;42.54
11395;BME280;5753;54.402;10.220;2023-08-17T10:32:49;102374.84;;;29.87;44.25
11395;BME280;5753;54.402;10.220;2023-08-17T10:35:15;102376.72;;;30.27;43.78
11395;BME280;5753;54.402;10.220;2023-08-17T10:37:41;102374.38;;;29.97;44.27
11395;BME280;5753;54.402;10.220;2023-08-17T10:40:08;102367.66;;;30.11;44.32
11395;BME280;5753;54.402;10.220;2023-08-17T10:42:35;102372.91;;;29.90;44.67
11395;BME280;5753;54.402;10.220;2023-08-17T10:47:47;102353.47;;;29.66;45.84
11395;BME280;5753;54.402;10.220;2023-08-17T10:50:24;102358.50;;;29.96;45.49
11395;BME280;5753;54.402;10.220;2023-08-17T10:52:53;102360.69;;;29.86;45.48
11395;BME280;5753;54.402;10.220;2023-08-17T10:55:44;102352.41;;;30.36;44.62
11395;BME280;5753;54.402;10.220;2023-08-17T10:58:11;102362.00;;;30.18;45.42
11395;BME280;5753;54.402;10.220;2023-08-17T11:00:38;102358.13;;;30.47;44.63
11395;BME280;5753;54.402;10.220;2023-08-17T11:03:08;102346.94;;;30.39;44.76
11395;BME280;5753;54.402;10.220;2023-08-17T11:11:15;102353.25;;;29.94;45.54
11395;BME280;5753;54.402;10.220;2023-08-17T11:13:43;102353.50;;;29.88;45.90
11395;BME280;5753;54.402;10.220;2023-08-17T11:16:12;102353.31;;;30.15;45.87
11395;BME280;5753;54.402;10.220;2023-08-17T11:18:38;102355.47;;;30.05;45.69
11395;BME280;5753;54.402;10.220;2023-08-17T11:21:06;102350.94;;;30.49;45.06
11395;BME280;5753;54.402;10.220;2023-08-17T11:23:33;102348.91;;;30.14;45.34
11395;BME280;5753;54.402;10.220;2023-08-17T11:26:00;102354.69;;;30.03;45.46
11395;BME280;5753;54.402;10.220;2023-08-17T11:28:28;102358.22;;;30.03;45.85
11395;BME280;5753;54.402;10.220;2023-08-17T11:31:00;102360.28;;;29.95;45.92
11395;BME280;5753;54.402;10.220;2023-08-17T11:33:27;102352.50;;;29.47;46.99
11395;BME280;5753;54.402;10.220;2023-08-17T11:35:57;102358.75;;;29.68;46.40
11395;BME280;5753;54.402;10.220;2023-08-17T11:38:34;102356.34;;;30.05;46.34
11395;BME280;5753;54.402;10.220;2023-08-17T11:41:00;102353.13;;;29.97;46.16
11395;BME280;5753;54.402;10.220;2023-08-17T11:43:32;102356.88;;;30.35;46.19
11395;BME280;5753;54.402;10.220;2023-08-17T11:45:59;102360.88;;;30.24;45.60
11395;BME280;5753;54.402;10.220;2023-08-17T11:48:25;102360.78;;;30.47;45.17
11395;BME280;5753;54.402;10.220;2023-08-17T11:50:52;102357.06;;;30.72;45.39
11395;BME280;5753;54.402;10.220;2023-08-17T11:53:18;102351.25;;;31.21;44.29
11395;BME280;5753;54.402;10.220;2023-08-17T11:55:44;102342.63;;;31.73;43.88
11395;BME280;5753;54.402;10.220;2023-08-17T11:58:10;102343.75;;;30.51;45.75
11395;BME280;5753;54.402;10.220;2023-08-17T12:00:40;102348.19;;;31.10;44.15
11395;BME280;5753;54.402;10.220;2023-08-17T12:03:07;102357.81;;;30.75;45.06
11395;BME280;5753;54.402;10.220;2023-08-17T12:05:33;102362.78;;;30.62;45.56
11395;BME280;5753;54.402;10.220;2023-08-17T12:08:00;102354.00;;;30.60;45.20
11395;BME280;5753;54.402;10.220;2023-08-17T12:10:32;102348.28;;;30.29;46.02
11395;BME280;5753;54.402;10.220;2023-08-17T12:13:00;102352.66;;;30.70;45.38
11395;BME280;5753;54.402;10.220;2023-08-17T12:15:36;102353.00;;;30.00;47.03
11395;BME280;5753;54.402;10.220;2023-08-17T12:18:05;102346.97;;;31.38;45.16
11395;BME280;5753;54.402;10.220;2023-08-17T12:20:33;102348.34;;;31.07;44.89
11395;BME280;5753;54.402;10.220;2023-08-17T12:23:02;102350.94;;;30.69;46.41
11395;BME280;5753;54.402;10.220;2023-08-17T12:25:28;102351.94;;;31.26;45.53
11395;BME280;5753;54.402;10.220;2023-08-17T12:27:58;102347.94;;;31.54;45.14
11395;BME280;5753;54.402;10.220;2023-08-17T12:30:28;102353.78;;;29.59;47.48
11395;BME280;5753;54.402;10.220;2023-08-17T12:32:54;102352.53;;;30.94;46.02
11395;BME280;5753;54.402;10.220;2023-08-17T12:35:21;102349.94;;;30.72;45.39
11395;BME280;5753;54.402;10.220;2023-08-17T12:37:50;102342.31;;;31.04;44.96
11395;BME280;5753;54.402;10.220;2023-08-17T12:40:16;102339.03;;;31.17;44.39
11395;BME280;5753;54.402;10.220;2023-08-17T12:42:42;102344.41;;;29.94;45.75
11395;BME280;5753;54.402;10.220;2023-08-17T12:45:09;102335.47;;;30.98;43.67
11395;BME280;5753;54.402;10.220;2023-08-17T12:47:35;102333.13;;;31.29;43.99
11395;BME280;5753;54.402;10.220;2023-08-17T12:50:01;102335.47;;;30.98;44.09
11395;BME280;5753;54.402;10.220;2023-08-17T12:52:29;102333.25;;;30.48;45.72
11395;BME280;5753;54.402;10.220;2023-08-17T12:54:55;102324.22;;;31.30;44.46
11395;BME280;5753;54.402;10.220;2023-08-17T12:57:21;102326.50;;;32.45;42.29
11395;BME280;5753;54.402;10.220;2023-08-17T12:59:47;102332.06;;;31.88;42.85
11395;BME280;5753;54.402;10.220;2023-08-17T13:02:13;102329.56;;;30.51;44.31
11395;BME280;5753;54.402;10.220;2023-08-17T13:04:41;102332.38;;;31.82;43.63